Time;durP1;ratioP1;P1;durP2;ratioP2;P2;SDS_P1;SDS_P2;PMS_P1;PMS_P2;Temp;Humidity;BMP_temperature;BMP_pressure;BME280_temperature;BME280_humidity;BME280_pressure;Samples;Min_cycle;Max_cycle;Signal;HPM_P1;HPM_P2
2022/08/18 00:01:21;;;;;;;28.27;22.27;;;16.80;99.90;;;;;;5095404;28;20209;-41
2022/08/18 00:03:48;;;;;;;29.63;23.03;;;16.80;99.90;;;;;;5095128;28;20210;-42
2022/08/18 00:06:15;;;;;;;27.10;23.43;;;16.70;99.90;;;;;;5095243;28;20610;-43
2022/08/18 00:08:40;;;;;;;27.70;22.93;;;16.70;99.90;;;;;;5095012;28;20178;-44
2022/08/18 00:11:06;;;;;;;25.27;21.37;;;16.70;99.90;;;;;;5094923;28;20574;-43
2022/08/18 00:13:32;;;;;;;27.63;23.30;;;16.60;99.90;;;;;;5095233;28;20537;-42
2022/08/18 00:15:57;;;;;;;28.73;24.10;;;16.60;99.90;;;;;;5094862;28;20199;-42
2022/08/18 00:18:23;;;;;;;26.50;22.60;;;16.60;99.90;;;;;;5095395;28;20183;-42
2022/08/18 00:20:49;;;;;;;25.53;20.63;;;16.50;99.90;;;;;;5076548;28;20213;-44
2022/08/18 00:23:15;;;;;;;24.07;20.37;;;16.40;99.90;;;;;;5094798;28;20634;-43
2022/08/18 00:25:41;;;;;;;23.67;20.83;;;16.40;99.90;;;;;;5095201;28;20703;-43
2022/08/18 00:28:07;;;;;;;26.67;21.97;;;16.40;99.90;;;;;;5094999;28;20179;-42
2022/08/18 00:30:33;;;;;;;26.87;23.07;;;16.30;99.90;;;;;;5094672;28;20199;-42
2022/08/18 00:33:00;;;;;;;25.57;22.50;;;16.30;99.90;;;;;;5095047;28;20164;-41
2022/08/18 00:35:37;;;;;;;27.60;23.13;;;16.20;99.90;;;;;;5094920;28;20179;-42
2022/08/18 00:38:06;;;;;;;29.43;23.27;;;16.20;99.90;;;;;;5094777;28;20217;-42
2022/08/18 00:40:47;;;;;;;25.27;22.17;;;16.20;99.90;;;;;;5094614;28;20255;-43
2022/08/18 00:43:21;;;;;;;28.10;23.13;;;16.10;99.90;;;;;;5094789;28;20528;-42
2022/08/18 00:45:47;;;;;;;27.53;22.87;;;16.10;99.90;;;;;;5094654;28;20310;-42
2022/08/18 00:48:14;;;;;;;25.97;21.90;;;16.20;99.90;;;;;;5095098;28;20209;-42
2022/08/18 00:50:50;;;;;;;27.87;23.50;;;16.20;99.90;;;;;;5094626;28;20713;-43
2022/08/18 00:53:48;;;;;;;26.80;23.30;;;16.20;99.90;;;;;;5095179;28;20159;-44
2022/08/18 00:56:21;;;;;;;29.97;24.33;;;16.30;99.90;;;;;;5060797;28;20236;-44
2022/08/18 00:59:13;;;;;;;32.83;25.00;;;16.40;99.90;;;;;;5094926;28;20546;-41
2022/08/18 01:01:40;;;;;;;31.50;26.20;;;16.40;99.90;;;;;;5065243;28;20203;-44
2022/08/18 01:04:13;;;;;;;29.80;25.60;;;16.50;99.90;;;;;;5094413;28;20167;-43
2022/08/18 01:07:01;;;;;;;32.00;24.63;;;16.50;99.90;;;;;;5094201;28;20198;-42
2022/08/18 01:09:27;;;;;;;28.83;25.70;;;16.40;99.90;;;;;;5082923;28;20202;-41
2022/08/18 01:11:53;;;;;;;32.10;26.50;;;16.40;99.90;;;;;;5093832;28;20199;-43
2022/08/18 01:14:18;;;;;;;30.23;25.50;;;16.50;99.90;;;;;;5093918;28;20191;-43
2022/08/18 01:22:25;;;;;;;31.60;26.40;;;16.40;99.90;;;;;;5094064;28;20217;-42
2022/08/18 01:27:40;;;;;;;30.10;26.10;;;16.30;99.90;;;;;;5093729;28;20533;-42
2022/08/18 01:30:09;;;;;;;26.87;23.97;;;16.30;99.90;;;;;;5093663;28;20179;-42
2022/08/18 01:32:37;;;;;;;27.47;24.17;;;16.40;99.90;;;;;;5094237;28;20323;-42
2022/08/18 01:35:07;;;;;;;28.83;24.47;;;16.30;99.90;;;;;;5093624;28;20186;-43
2022/08/18 01:37:33;;;;;;;32.23;27.33;;;16.30;99.90;;;;;;5093501;28;20654;-41
2022/08/18 01:39:59;;;;;;;29.43;25.27;;;16.20;99.90;;;;;;5093594;28;20175;-41
2022/08/18 01:42:24;;;;;;;31.73;25.90;;;16.20;99.90;;;;;;5093689;28;20210;-43
2022/08/18 01:44:50;;;;;;;27.80;23.47;;;16.20;99.90;;;;;;5093715;28;20214;-43
2022/08/18 01:47:17;;;;;;;28.83;25.67;;;16.20;99.90;;;;;;5093600;28;20183;-42
2022/08/18 01:49:43;;;;;;;31.70;25.23;;;16.10;99.90;;;;;;5093434;28;20634;-41
2022/08/18 01:52:14;;;;;;;29.90;25.63;;;16.10;99.90;;;;;;5093673;28;20195;-42
2022/08/18 01:54:41;;;;;;;28.10;23.73;;;16.10;99.90;;;;;;5094144;28;20246;-43
2022/08/18 01:57:11;;;;;;;26.97;22.93;;;16.10;99.90;;;;;;5097891;28;20583;-43
2022/08/18 01:59:36;;;;;;;24.50;21.90;;;16.10;99.90;;;;;;5098148;28;20183;-41
2022/08/18 02:02:02;;;;;;;26.83;22.40;;;16.10;99.90;;;;;;5097606;28;20674;-41
2022/08/18 02:04:32;;;;;;;28.67;24.40;;;16.10;99.90;;;;;;5097701;28;20240;-42
2022/08/18 02:06:57;;;;;;;29.10;23.83;;;16.10;99.90;;;;;;5097416;28;20182;-43
2022/08/18 02:09:23;;;;;;;27.07;23.27;;;16.10;99.90;;;;;;5097598;28;20175;-41
2022/08/18 02:11:48;;;;;;;27.87;24.03;;;16.00;99.90;;;;;;5097260;28;20290;-42
2022/08/18 02:14:14;;;;;;;27.70;23.67;;;16.00;99.90;;;;;;5097499;28;20221;-41
2022/08/18 02:16:40;;;;;;;29.67;24.37;;;16.00;99.90;;;;;;5097272;28;20199;-42
2022/08/18 02:19:05;;;;;;;29.20;25.00;;;15.90;99.90;;;;;;5097586;28;20175;-41
2022/08/18 02:21:31;;;;;;;29.40;24.90;;;15.90;99.90;;;;;;5097177;28;20205;-44
2022/08/18 02:23:56;;;;;;;28.23;23.77;;;15.90;99.90;;;;;;5097655;28;20187;-43
2022/08/18 02:26:22;;;;;;;31.43;25.07;;;15.90;99.90;;;;;;5097107;28;20682;-42
2022/08/18 02:28:48;;;;;;;30.50;25.03;;;15.90;99.90;;;;;;5097480;28;20171;-40
2022/08/18 02:31:18;;;;;;;34.90;28.23;;;15.90;99.90;;;;;;5096866;28;20260;-42
2022/08/18 02:33:45;;;;;;;36.70;27.80;;;16.00;99.90;;;;;;5097265;28;20183;-43
2022/08/18 02:36:12;;;;;;;39.57;29.53;;;16.00;99.90;;;;;;5078831;28;20194;-42
2022/08/18 02:38:38;;;;;;;46.83;33.13;;;16.10;99.90;;;;;;5079497;28;20303;-43
2022/08/18 02:41:05;;;;;;;46.37;32.17;;;16.20;99.90;;;;;;5097001;28;20203;-43
2022/08/18 02:43:31;;;;;;;44.27;32.47;;;16.30;99.90;;;;;;5097859;28;20605;-43
2022/08/18 02:45:57;;;;;;;50.57;34.27;;;16.30;99.90;;;;;;5096617;28;20246;-42
2022/08/18 02:51:07;;;;;;;48.73;34.30;;;16.50;99.90;;;;;;5096692;28;20543;-42
2022/08/18 02:53:34;;;;;;;45.13;33.53;;;16.50;99.90;;;;;;5096838;28;20198;-41
2022/08/18 02:56:16;;;;;;;45.80;32.53;;;16.60;99.90;;;;;;5096536;28;20262;-42
2022/08/18 02:58:42;;;;;;;43.90;31.50;;;16.60;99.90;;;;;;5096755;28;20250;-42
2022/08/18 03:01:07;;;;;;;49.80;32.90;;;16.70;99.90;;;;;;5078160;28;20234;-43
2022/08/18 03:03:33;;;;;;;49.50;34.07;;;16.70;99.90;;;;;;5078224;28;20546;-43
2022/08/18 03:05:59;;;;;;;43.63;31.40;;;16.70;99.90;;;;;;5095556;28;20241;-42
2022/08/18 03:08:24;;;;;;;44.17;32.60;;;16.80;99.90;;;;;;5095750;28;20193;-43
2022/08/18 03:10:51;;;;;;;45.60;32.40;;;16.80;99.90;;;;;;5096713;28;20203;-42
2022/08/18 03:13:17;;;;;;;45.43;33.13;;;16.90;99.90;;;;;;5096509;28;20634;-41
2022/08/18 03:15:43;;;;;;;48.87;33.23;;;16.90;99.90;;;;;;5096132;28;20191;-42
2022/08/18 03:18:11;;;;;;;50.73;33.50;;;16.90;99.90;;;;;;5096360;28;20178;-41
2022/08/18 03:20:36;;;;;;;44.80;31.07;;;17.00;99.90;;;;;;5095930;28;20224;-42
2022/08/18 03:23:03;;;;;;;46.57;32.47;;;17.00;99.90;;;;;;5095968;28;20636;-42
2022/08/18 03:25:29;;;;;;;53.53;33.73;;;17.10;99.90;;;;;;5096170;28;20213;-42
2022/08/18 03:27:55;;;;;;;46.70;32.67;;;17.10;99.90;;;;;;5096192;28;20542;-43
2022/08/18 03:30:22;;;;;;;45.77;31.30;;;17.10;99.90;;;;;;5095744;28;20185;-42
2022/08/18 03:32:48;;;;;;;52.90;36.63;;;17.20;99.90;;;;;;5096003;28;20261;-43
2022/08/18 03:35:15;;;;;;;53.10;36.60;;;17.20;99.90;;;;;;5095995;28;20182;-42
2022/08/18 03:37:41;;;;;;;51.90;34.50;;;17.10;99.90;;;;;;5096254;28;20178;-43
2022/08/18 03:40:07;;;;;;;53.17;34.63;;;17.20;99.90;;;;;;5096678;28;20190;-42
2022/08/18 03:42:33;;;;;;;47.17;32.27;;;17.20;99.90;;;;;;5095978;28;20179;-42
2022/08/18 03:44:58;;;;;;;50.97;32.50;;;17.20;99.90;;;;;;5095867;28;20222;-42
2022/08/18 03:47:24;;;;;;;53.60;34.53;;;17.20;99.90;;;;;;5095631;28;20202;-41
2022/08/18 03:49:49;;;;;;;51.40;33.93;;;17.20;99.90;;;;;;5095726;28;20185;-42
2022/08/18 03:52:15;;;;;;;49.50;32.43;;;17.20;99.90;;;;;;5095390;28;20666;-43
2022/08/18 03:54:41;;;;;;;54.13;33.43;;;17.20;99.90;;;;;;5095396;28;20178;-41
2022/08/18 03:57:08;;;;;;;53.07;34.13;;;17.20;99.90;;;;;;5095271;28;20654;-42
2022/08/18 03:59:34;;;;;;;52.47;34.07;;;17.30;99.90;;;;;;5095376;28;20155;-41
2022/08/18 04:02:03;;;;;;;48.93;33.13;;;17.30;99.90;;;;;;5095039;28;20195;-42
2022/08/18 04:04:29;;;;;;;41.97;29.70;;;17.30;99.90;;;;;;5095112;28;20615;-43
2022/08/18 04:06:57;;;;;;;40.57;27.90;;;17.20;99.90;;;;;;5095126;28;20304;-44
2022/08/18 04:09:24;;;;;;;41.53;28.57;;;17.20;99.90;;;;;;5095394;28;20179;-41
2022/08/18 04:11:50;;;;;;;42.03;28.73;;;17.20;99.90;;;;;;5094986;28;20558;-42
2022/08/18 04:14:17;;;;;;;43.07;29.03;;;17.20;99.90;;;;;;5095004;28;20171;-44
2022/08/18 04:16:44;;;;;;;40.13;28.17;;;17.20;99.90;;;;;;5095114;28;20282;-42
2022/08/18 04:19:12;;;;;;;42.37;28.63;;;17.20;99.90;;;;;;5095037;28;20179;-41
2022/08/18 04:21:40;;;;;;;43.57;29.80;;;17.10;99.90;;;;;;5094821;28;20202;-42
2022/08/18 04:24:07;;;;;;;44.47;30.33;;;17.20;99.90;;;;;;5076710;28;20180;-41
2022/08/18 04:26:36;;;;;;;42.43;29.70;;;17.20;99.90;;;;;;5095020;28;20207;-43
2022/08/18 04:29:03;;;;;;;48.73;30.23;;;17.20;99.90;;;;;;5094932;28;20179;-43
2022/08/18 04:31:29;;;;;;;45.53;30.00;;;17.20;99.90;;;;;;5094656;28;20281;-42
2022/08/18 04:33:57;;;;;;;49.03;30.97;;;17.20;99.90;;;;;;5095146;28;20175;-42
2022/08/18 04:36:24;;;;;;;47.97;30.93;;;17.10;99.90;;;;;;5094977;28;20175;-42
2022/08/18 04:38:49;;;;;;;50.30;32.10;;;17.20;99.90;;;;;;5094888;28;20293;-41
2022/08/18 04:41:16;;;;;;;50.70;32.47;;;17.20;99.90;;;;;;5094735;28;20274;-42
2022/08/18 04:43:41;;;;;;;53.17;32.60;;;17.20;99.90;;;;;;5094655;28;20267;-39
2022/08/18 04:46:08;;;;;;;50.30;31.43;;;17.20;99.90;;;;;;5094381;28;20234;-38
2022/08/18 04:48:39;;;;;;;48.07;30.57;;;17.20;99.90;;;;;;5094577;28;20182;-40
2022/08/18 04:51:07;;;;;;;50.60;32.27;;;17.20;99.90;;;;;;5094506;28;20203;-39
2022/08/18 04:53:45;;;;;;;47.20;30.47;;;17.20;99.90;;;;;;5095102;28;20175;-37
2022/08/18 04:56:26;;;;;;;45.53;29.40;;;17.30;99.90;;;;;;5094184;28;20170;-37
2022/08/18 04:58:56;;;;;;;46.37;31.10;;;17.30;99.90;;;;;;5094448;28;20254;-38
2022/08/18 05:01:25;;;;;;;49.90;32.20;;;17.40;99.90;;;;;;5094600;28;20210;-39
2022/08/18 05:03:53;;;;;;;50.73;31.53;;;17.40;99.90;;;;;;5094360;28;20518;-38
2022/08/18 05:06:20;;;;;;;50.53;32.77;;;17.40;99.90;;;;;;5094119;28;20206;-40
2022/08/18 05:08:49;;;;;;;50.87;32.13;;;17.50;99.90;;;;;;5093992;28;20198;-40
2022/08/18 05:11:14;;;;;;;54.70;33.33;;;17.50;99.90;;;;;;5094220;28;20217;-37
2022/08/18 05:13:41;;;;;;;51.03;31.23;;;17.50;99.90;;;;;;5093950;28;20577;-40
2022/08/18 05:16:07;;;;;;;46.60;30.93;;;17.60;99.90;;;;;;5093989;28;20199;-39
2022/08/18 05:18:38;;;;;;;49.37;30.83;;;17.50;99.90;;;;;;5093740;28;20174;-38
2022/08/18 05:21:04;;;;;;;49.83;32.43;;;17.60;99.90;;;;;;5093814;28;20643;-37
2022/08/18 05:23:30;;;;;;;53.97;32.47;;;17.60;99.90;;;;;;5094782;28;20201;-37
2022/08/18 05:25:57;;;;;;;48.33;30.53;;;17.70;99.90;;;;;;5093958;28;20198;-39
2022/08/18 05:28:23;;;;;;;47.03;29.27;;;17.70;99.90;;;;;;5093673;28;20179;-38
2022/08/18 05:30:49;;;;;;;46.43;30.57;;;17.70;99.90;;;;;;5092831;28;20190;-39
2022/08/18 05:33:14;;;;;;;49.47;30.67;;;17.70;99.90;;;;;;5093903;28;20167;-39
2022/08/18 05:35:45;;;;;;;48.73;29.60;;;17.70;99.90;;;;;;5094105;28;20174;-39
2022/08/18 05:38:51;;;;;;;50.63;31.57;;;17.80;99.90;;;;;;5093595;28;20167;-38
2022/08/18 05:41:26;;;;;;;45.00;29.07;;;17.80;99.90;;;;;;5093664;28;20194;-40
2022/08/18 05:43:53;;;;;;;45.43;29.33;;;17.90;99.90;;;;;;5093568;28;20650;-39
2022/08/18 05:46:23;;;;;;;41.70;28.83;;;17.90;99.90;;;;;;5093710;28;20340;-40
2022/08/18 05:48:49;;;;;;;46.93;29.40;;;17.90;99.90;;;;;;5075417;28;20178;-37
2022/08/18 05:51:28;;;;;;;48.20;29.73;;;17.90;99.90;;;;;;5093500;28;20194;-39
2022/08/18 05:56:47;;;;;;;44.67;28.67;;;18.00;99.90;;;;;;5093978;28;20174;-39
2022/08/18 05:59:25;;;;;;;43.90;28.50;;;18.10;99.90;;;;;;5093704;28;20163;-40
2022/08/18 06:01:58;;;;;;;42.77;27.17;;;18.10;99.90;;;;;;5093676;28;20198;-39
2022/08/18 06:04:46;;;;;;;41.67;27.87;;;18.10;99.90;;;;;;5093809;28;20167;-40
2022/08/18 06:07:25;;;;;;;39.33;26.33;;;18.10;99.90;;;;;;5093361;28;20635;-39
2022/08/18 06:09:53;;;;;;;43.03;27.63;;;18.10;99.90;;;;;;5093635;28;20250;-41
2022/08/18 06:12:23;;;;;;;42.87;27.43;;;18.10;99.90;;;;;;5093520;28;20194;-40
2022/08/18 06:14:49;;;;;;;39.83;26.87;;;18.20;99.90;;;;;;5094216;28;20194;-39
2022/08/18 06:17:59;;;;;;;40.87;27.20;;;18.10;99.90;;;;;;5094152;28;20159;-40
2022/08/18 06:20:51;;;;;;;41.00;25.57;;;18.20;99.90;;;;;;5074409;28;20210;-40
2022/08/18 06:23:29;;;;;;;38.90;25.57;;;18.20;99.90;;;;;;5085982;28;20187;-43
2022/08/18 06:26:18;;;;;;;47.03;27.93;;;18.20;99.90;;;;;;5093457;28;20239;-44
2022/08/18 06:29:18;;;;;;;40.23;26.50;;;18.30;99.90;;;;;;5093800;28;20212;-46
2022/08/18 06:32:10;;;;;;;44.17;28.30;;;18.30;99.90;;;;;;5093430;28;20194;-45
2022/08/18 06:35:07;;;;;;;44.67;27.57;;;18.30;99.90;;;;;;5093523;28;20167;-43
2022/08/18 06:40:38;;;;;;;42.90;27.73;;;18.30;99.90;;;;;;5069978;28;20629;-45
2022/08/18 06:43:08;;;;;;;43.97;27.40;;;18.40;99.90;;;;;;5096759;28;20177;-42
2022/08/18 06:45:37;;;;;;;52.10;28.80;;;18.40;99.90;;;;;;5096921;28;20195;-45
2022/08/18 06:48:25;;;;;;;46.90;28.73;;;18.40;99.90;;;;;;5097385;28;20200;-44
2022/08/18 06:50:59;;;;;;;45.90;27.77;;;18.40;99.90;;;;;;5096879;28;20191;-43
2022/08/18 06:53:56;;;;;;;43.00;29.27;;;18.50;99.90;;;;;;5096875;28;20157;-43
2022/08/18 06:56:40;;;;;;;45.23;30.13;;;18.50;99.90;;;;;;5078367;28;20246;-44
2022/08/18 06:59:17;;;;;;;44.37;28.93;;;18.60;99.90;;;;;;5096689;28;20175;-44
2022/08/18 07:01:44;;;;;;;40.77;27.20;;;18.60;99.90;;;;;;5096453;28;20222;-44
2022/08/18 07:04:31;;;;;;;42.60;27.40;;;18.70;99.90;;;;;;5096639;28;20182;-45
2022/08/18 07:06:56;;;;;;;38.70;26.30;;;18.70;99.90;;;;;;5096302;28;20658;-44
2022/08/18 07:09:26;;;;;;;41.20;26.27;;;18.70;99.90;;;;;;5096222;28;20219;-43
2022/08/18 07:12:06;;;;;;;41.47;26.10;;;18.80;99.90;;;;;;5096087;28;20194;-44
2022/08/18 07:15:00;;;;;;;42.83;26.87;;;18.80;99.90;;;;;;5096031;28;20171;-45
2022/08/18 07:17:47;;;;;;;37.67;25.17;;;18.90;99.90;;;;;;5096043;28;20190;-44
2022/08/18 07:20:23;;;;;;;37.60;26.07;;;18.90;99.90;;;;;;5096569;28;20194;-43
2022/08/18 07:22:59;;;;;;;35.53;24.60;;;18.90;99.90;;;;;;5096200;28;20163;-42
2022/08/18 07:25:30;;;;;;;36.77;25.50;;;18.90;99.90;;;;;;5095848;28;20209;-43
2022/08/18 07:27:56;;;;;;;36.67;24.97;;;18.90;99.90;;;;;;5077818;28;20679;-45
2022/08/18 07:30:22;;;;;;;37.87;24.57;;;19.00;99.90;;;;;;5077622;28;20187;-42
2022/08/18 07:33:11;;;;;;;37.17;25.90;;;19.00;99.90;;;;;;5096081;28;20172;-45
2022/08/18 07:35:43;;;;;;;37.27;24.90;;;19.10;99.90;;;;;;5096003;28;20504;-44
2022/08/18 07:38:41;;;;;;;39.20;25.33;;;19.00;99.90;;;;;;5095998;28;20507;-43
2022/08/18 07:41:13;;;;;;;34.50;24.97;;;19.10;99.90;;;;;;5095895;28;20205;-45
2022/08/18 07:44:04;;;;;;;34.10;24.53;;;19.10;99.90;;;;;;5095893;28;20168;-43
2022/08/18 07:46:42;;;;;;;35.13;24.00;;;19.10;99.90;;;;;;5086711;28;20210;-45
2022/08/18 07:49:09;;;;;;;31.70;23.53;;;19.10;99.90;;;;;;5095753;28;20489;-46
2022/08/18 07:52:07;;;;;;;34.63;24.63;;;19.10;99.90;;;;;;5095599;28;20689;-44
2022/08/18 07:55:00;;;;;;;35.37;24.13;;;19.10;99.90;;;;;;5094986;28;20178;-44
2022/08/18 07:57:38;;;;;;;36.83;23.97;;;19.10;99.90;;;;;;5095769;28;20167;-44
2022/08/18 08:00:20;;;;;;;37.27;24.53;;;19.20;99.90;;;;;;5095518;28;20163;-43
2022/08/18 08:03:08;;;;;;;35.57;24.63;;;19.20;99.90;;;;;;5095540;28;20289;-45
2022/08/18 08:06:11;;;;;;;33.53;23.80;;;19.20;99.90;;;;;;5095054;28;20686;-45
2022/08/18 08:09:11;;;;;;;38.10;25.53;;;19.20;99.90;;;;;;5095083;28;20175;-44
2022/08/18 08:11:43;;;;;;;36.87;25.27;;;19.10;99.90;;;;;;5095145;28;20194;-42
2022/08/18 08:14:35;;;;;;;35.50;25.70;;;19.20;99.90;;;;;;5095137;28;20186;-45
2022/08/18 08:17:29;;;;;;;36.67;25.73;;;19.20;99.90;;;;;;5094958;28;20174;-45
2022/08/18 08:20:02;;;;;;;36.20;25.67;;;19.30;99.90;;;;;;5095448;28;20190;-44
2022/08/18 08:22:49;;;;;;;33.37;24.50;;;19.40;99.90;;;;;;5095320;28;20522;-45
2022/08/18 08:25:22;;;;;;;36.97;25.47;;;19.40;99.90;;;;;;5094736;28;20633;-43
2022/08/18 08:28:06;;;;;;;36.73;25.00;;;19.60;99.90;;;;;;5095317;28;20516;-46
2022/08/18 08:30:35;;;;;;;32.73;24.63;;;19.70;99.90;;;;;;5095314;28;20556;-44
2022/08/18 08:33:25;;;;;;;32.63;23.67;;;19.70;99.90;;;;;;5094627;28;20674;-44
2022/08/18 08:36:03;;;;;;;33.93;25.10;;;19.80;99.90;;;;;;5094622;28;20160;-44
2022/08/18 08:38:56;;;;;;;33.47;24.63;;;19.90;99.90;;;;;;5094767;28;20179;-45
2022/08/18 08:41:44;;;;;;;33.50;24.80;;;20.00;99.90;;;;;;5095203;28;20583;-45
2022/08/18 08:44:25;;;;;;;33.93;23.83;;;20.10;99.90;;;;;;5094321;28;20183;-44
2022/08/18 08:47:16;;;;;;;34.37;24.80;;;20.30;99.90;;;;;;5094341;28;20597;-44
2022/08/18 08:49:44;;;;;;;35.00;23.57;;;20.40;99.90;;;;;;5094916;28;20156;-45
2022/08/18 08:52:33;;;;;;;30.20;23.07;;;20.60;99.90;;;;;;5094190;28;20202;-44
2022/08/18 08:55:03;;;;;;;33.13;21.93;;;20.70;99.90;;;;;;5094248;28;20167;-46
2022/08/18 08:57:34;;;;;;;30.63;20.73;;;20.70;99.90;;;;;;5094124;28;20175;-44
2022/08/18 09:00:02;;;;;;;30.50;21.67;;;20.90;99.90;;;;;;5094103;28;20163;-45
2022/08/18 09:02:58;;;;;;;27.70;21.60;;;21.00;99.90;;;;;;5094302;28;20186;-44
2022/08/18 09:05:34;;;;;;;30.27;21.70;;;21.30;99.90;;;;;;5094280;28;20666;-44
2022/08/18 09:08:16;;;;;;;26.10;19.90;;;21.50;99.90;;;;;;5094170;28;20167;-45
2022/08/18 09:10:48;;;;;;;23.43;19.00;;;21.70;99.90;;;;;;5094789;28;20273;-45
2022/08/18 09:13:41;;;;;;;27.57;19.50;;;21.80;99.90;;;;;;5094548;28;20167;-44
2022/08/18 09:16:20;;;;;;;27.33;19.33;;;21.90;99.90;;;;;;5094087;28;20218;-43
2022/08/18 09:19:03;;;;;;;27.43;19.20;;;21.90;99.90;;;;;;5094301;28;20167;-45
2022/08/18 09:21:56;;;;;;;28.63;20.43;;;21.70;99.90;;;;;;5094337;28;20665;-46
2022/08/18 09:24:37;;;;;;;19.13;16.50;;;21.70;99.90;;;;;;5093818;28;20195;-45
2022/08/18 09:27:03;;;;;;;20.97;16.00;;;21.80;99.90;;;;;;5093757;28;20165;-45
2022/08/18 09:29:56;;;;;;;16.80;14.37;;;21.90;99.90;;;;;;5093697;28;20171;-46
2022/08/18 09:32:22;;;;;;;16.27;13.27;;;22.10;99.90;;;;;;5091176;28;20199;-44
2022/08/18 09:35:11;;;;;;;15.83;12.77;;;22.20;99.90;;;;;;5093578;28;20713;-46
2022/08/18 09:41:33;;;;;;;16.83;12.87;;;22.60;99.90;;;;;;5031638;28;20208;-45
2022/08/18 09:44:10;;;;;;;15.07;12.33;;;22.70;99.90;;;;;;5092116;28;20193;-45
2022/08/18 09:46:55;;;;;;;14.83;12.60;;;22.80;99.90;;;;;;5093446;28;20725;-47
2022/08/18 09:49:21;;;;;;;15.30;12.70;;;23.00;99.90;;;;;;5093713;28;20292;-45
2022/08/18 09:51:51;;;;;;;15.00;12.30;;;23.10;99.90;;;;;;5093277;28;20717;-44
2022/08/18 09:54:24;;;;;;;15.13;12.37;;;23.20;99.90;;;;;;5093378;28;20182;-45
2022/08/18 09:56:49;;;;;;;13.63;11.77;;;23.30;99.90;;;;;;5093621;28;20625;-46
2022/08/18 09:59:36;;;;;;;13.83;10.80;;;23.40;99.90;;;;;;5093525;28;20251;-43
2022/08/18 10:02:32;;;;;;;13.53;10.20;;;23.40;99.90;;;;;;5093257;28;20247;-45
2022/08/18 10:05:17;;;;;;;13.57;10.03;;;23.40;99.90;;;;;;5093158;28;20528;-45
2022/08/18 10:07:53;;;;;;;12.23;9.27;;;23.40;99.90;;;;;;5093334;28;20170;-45
2022/08/18 10:10:51;;;;;;;12.73;10.07;;;23.40;99.90;;;;;;5093488;28;20246;-45
2022/08/18 10:13:28;;;;;;;13.07;10.00;;;23.50;99.90;;;;;;5093865;28;20156;-45
2022/08/18 10:16:00;;;;;;;10.63;9.17;;;23.60;99.90;;;;;;5094011;28;20219;-43
2022/08/18 10:18:47;;;;;;;9.63;8.67;;;23.70;99.90;;;;;;5097303;28;20163;-44
2022/08/18 10:21:37;;;;;;;10.07;7.63;;;23.70;99.90;;;;;;5097391;28;20222;-43
2022/08/18 10:24:05;;;;;;;10.10;6.70;;;23.60;99.90;;;;;;5097082;28;20190;-46
2022/08/18 10:26:30;;;;;;;7.63;6.80;;;23.70;99.90;;;;;;5097360;28;20205;-46
2022/08/18 10:29:08;;;;;;;8.80;7.43;;;23.80;99.90;;;;;;5097027;28;20183;-45
2022/08/18 10:31:55;;;;;;;7.77;6.97;;;23.80;99.90;;;;;;5097356;28;20596;-45
2022/08/18 10:34:36;;;;;;;6.50;5.87;;;23.80;99.90;;;;;;5078865;28;20178;-46
2022/08/18 10:37:11;;;;;;;9.53;7.40;;;24.00;99.90;;;;;;5097214;28;20219;-46
2022/08/18 10:39:37;;;;;;;7.67;6.60;;;24.10;99.90;;;;;;5097485;28;20269;-45
2022/08/18 10:42:22;;;;;;;9.27;8.13;;;24.30;99.90;;;;;;5096802;28;20230;-45
2022/08/18 10:44:51;;;;;;;8.90;7.23;;;24.30;99.90;;;;;;5097091;28;20566;-45
2022/08/18 10:47:23;;;;;;;7.83;6.40;;;24.20;99.90;;;;;;5096718;28;20190;-45
2022/08/18 10:49:50;;;;;;;7.03;6.33;;;24.20;99.90;;;;;;5078653;28;20257;-46
2022/08/18 10:52:36;;;;;;;6.53;5.93;;;24.40;99.90;;;;;;5096831;28;20647;-46
2022/08/18 10:55:34;;;;;;;6.67;5.70;;;24.40;99.90;;;;;;5096822;28;20163;-45
2022/08/18 10:58:14;;;;;;;7.20;6.03;;;24.40;99.90;;;;;;5064425;28;20535;-46
2022/08/18 11:01:09;;;;;;;7.60;5.20;;;24.60;99.90;;;;;;5096762;28;20248;-46
2022/08/18 11:03:35;;;;;;;8.27;5.40;;;24.50;99.90;;;;;;5096473;28;20213;-46
2022/08/18 11:06:05;;;;;;;8.17;5.70;;;24.70;99.90;;;;;;5096636;28;20206;-46
2022/08/18 11:08:35;;;;;;;8.07;5.90;;;24.80;99.90;;;;;;5096416;28;20171;-45
2022/08/18 11:11:08;;;;;;;8.57;5.60;;;24.80;99.90;;;;;;5096430;28;20197;-46
2022/08/18 11:13:52;;;;;;;9.37;6.50;;;24.70;99.90;;;;;;5078161;28;20181;-45
2022/08/18 11:16:54;;;;;;;8.87;5.70;;;24.60;99.90;;;;;;5078039;28;20197;-45
2022/08/18 11:19:23;;;;;;;11.23;6.30;;;24.40;99.90;;;;;;5096213;28;20567;-45
2022/08/18 11:21:51;;;;;;;6.83;5.43;;;24.30;99.90;;;;;;5096276;28;20221;-46
2022/08/18 11:24:20;;;;;;;9.33;6.40;;;24.30;99.90;;;;;;5096339;28;20179;-46
2022/08/18 11:27:00;;;;;;;5.77;5.20;;;24.30;99.90;;;;;;5095839;28;20198;-45
2022/08/18 11:29:38;;;;;;;7.03;5.37;;;24.10;99.90;;;;;;5095633;28;20166;-46
2022/08/18 11:32:23;;;;;;;6.57;5.70;;;24.10;99.90;;;;;;5096145;28;20220;-46
2022/08/18 11:34:52;;;;;;;8.27;5.53;;;24.10;99.90;;;;;;5102323;28;20186;-46
2022/08/18 11:37:32;;;;;;;6.60;5.87;;;24.10;99.90;;;;;;5098611;28;20207;-46
2022/08/18 11:40:00;;;;;;;7.37;5.83;;;24.20;99.90;;;;;;5096585;28;20629;-45
2022/08/18 11:42:38;;;;;;;7.83;6.13;;;24.10;99.90;;;;;;5095751;28;20195;-45
2022/08/18 11:45:25;;;;;;;7.03;6.10;;;24.00;99.90;;;;;;5095689;28;20190;-46
2022/08/18 11:48:21;;;;;;;9.00;6.03;;;24.00;99.90;;;;;;5095511;28;20175;-46
2022/08/18 11:51:00;;;;;;;5.60;5.10;;;23.90;99.90;;;;;;5095973;28;20236;-46
2022/08/18 11:53:31;;;;;;;5.87;5.33;;;23.80;99.90;;;;;;5095868;28;20178;-46
2022/08/18 11:56:12;;;;;;;6.17;5.10;;;23.90;99.90;;;;;;5095488;28;20179;-45
2022/08/18 11:58:57;;;;;;;7.30;5.50;;;24.00;99.90;;;;;;5095793;28;20167;-46
2022/08/18 12:01:37;;;;;;;6.83;4.73;;;24.10;99.90;;;;;;5095543;28;20195;-45
2022/08/18 12:04:12;;;;;;;9.17;5.90;;;24.10;99.90;;;;;;5077266;28;20182;-45
2022/08/18 12:06:40;;;;;;;5.70;5.10;;;24.20;99.90;;;;;;5095529;28;20213;-47
2022/08/18 12:09:17;;;;;;;8.07;5.43;;;24.10;99.90;;;;;;5095225;28;20167;-44
2022/08/18 12:11:55;;;;;;;7.30;4.93;;;24.30;99.90;;;;;;5076973;28;20190;-45
2022/08/18 12:14:24;;;;;;;5.67;5.03;;;24.40;99.90;;;;;;5095494;28;20174;-45
2022/08/18 12:16:50;;;;;;;9.23;5.60;;;24.40;99.90;;;;;;5095082;28;20213;-45
2022/08/18 12:19:19;;;;;;;7.43;5.60;;;24.50;99.90;;;;;;5095336;28;20572;-46
2022/08/18 12:21:57;;;;;;;7.03;6.23;;;24.60;99.90;;;;;;5095222;28;20333;-46
2022/08/18 12:24:32;;;;;;;6.27;5.27;;;24.60;99.90;;;;;;5095135;28;20547;-46
2022/08/18 12:26:58;;;;;;;5.90;4.87;;;24.60;99.90;;;;;;5095042;28;20205;-46
2022/08/18 12:29:25;;;;;;;5.80;4.93;;;24.80;99.90;;;;;;5094843;28;20174;-46
2022/08/18 12:31:53;;;;;;;7.27;5.13;;;24.80;99.90;;;;;;5094719;28;20187;-46
2022/08/18 12:34:25;;;;;;;6.90;5.10;;;24.80;99.90;;;;;;5094958;28;20182;-45
2022/08/18 12:36:56;;;;;;;5.83;4.50;;;24.90;99.90;;;;;;5095014;28;20159;-44
2022/08/18 12:39:22;;;;;;;5.23;4.73;;;25.00;99.90;;;;;;5094781;28;20690;-41
2022/08/18 12:41:48;;;;;;;6.87;4.30;;;25.20;99.90;;;;;;5095114;28;20206;-42
2022/08/18 12:44:14;;;;;;;7.17;4.40;;;25.20;99.90;;;;;;5095012;28;20261;-41
2022/08/18 12:46:40;;;;;;;5.33;4.33;;;25.30;99.90;;;;;;5094970;28;20199;-41
2022/08/18 12:49:13;;;;;;;9.17;4.33;;;25.30;99.90;;;;;;5094597;28;20167;-41
2022/08/18 12:51:39;;;;;;;7.87;4.33;;;25.30;99.90;;;;;;5094753;28;20240;-39
2022/08/18 12:54:05;;;;;;;5.83;4.40;;;25.20;99.90;;;;;;5095288;28;20183;-41
2022/08/18 12:56:31;;;;;;;6.40;4.30;;;25.20;99.90;;;;;;5094779;28;20174;-41
2022/08/18 12:58:59;;;;;;;4.50;4.07;;;25.20;99.90;;;;;;5094335;28;20194;-42
2022/08/18 13:01:26;;;;;;;5.83;4.60;;;25.30;99.90;;;;;;5094392;28;20217;-40
2022/08/18 13:03:54;;;;;;;6.57;4.60;;;25.40;99.90;;;;;;5094368;28;20259;-41
2022/08/18 13:06:22;;;;;;;6.43;4.40;;;25.50;99.90;;;;;;5094512;28;20198;-41
2022/08/18 13:08:49;;;;;;;7.67;4.20;;;25.40;99.90;;;;;;5094476;28;20220;-42
2022/08/18 13:11:15;;;;;;;7.50;4.37;;;25.40;99.90;;;;;;5076204;28;20552;-40
2022/08/18 13:13:41;;;;;;;5.40;4.00;;;25.40;99.90;;;;;;5094200;28;20174;-40
2022/08/18 13:16:07;;;;;;;6.53;4.63;;;25.40;99.90;;;;;;5094038;28;20195;-41
2022/08/18 13:18:34;;;;;;;8.33;4.00;;;25.40;99.90;;;;;;5094507;28;20658;-42
2022/08/18 13:21:00;;;;;;;5.90;4.63;;;25.40;99.90;;;;;;5094079;28;20207;-41
2022/08/18 13:23:27;;;;;;;5.67;4.60;;;25.50;99.90;;;;;;5094441;28;20727;-42